createdAt,value
2022-10-19T00:00:43.218Z,16.63
2022-10-19T00:03:31.914Z,16.48
2022-10-19T00:06:30.400Z,15.49
2022-10-19T00:09:19.064Z,15.07
2022-10-19T00:12:05.753Z,15.70
2022-10-19T00:14:51.743Z,16.13
2022-10-19T00:17:38.177Z,16.29
2022-10-19T00:20:24.838Z,16.53
2022-10-19T00:23:11.179Z,16.70
2022-10-19T00:25:58.048Z,16.62
2022-10-19T00:28:44.386Z,15.77
2022-10-19T00:31:30.581Z,14.87
2022-10-19T00:34:17.669Z,14.94
2022-10-19T00:37:03.922Z,15.67
2022-10-19T00:42:37.391Z,16.37
2022-10-19T00:45:24.034Z,16.41
2022-10-19T00:48:18.677Z,16.50
2022-10-19T00:51:04.826Z,16.29
2022-10-19T00:53:51.461Z,15.27
2022-10-19T00:56:41.046Z,14.75
2022-10-19T00:59:31.260Z,15.29
2022-10-19T01:02:17.954Z,15.72
2022-10-19T01:05:04.770Z,16.10
2022-10-19T01:07:51.756Z,16.29
2022-10-19T01:11:39.567Z,16.45
2022-10-19T01:15:04.343Z,15.88
2022-10-19T01:18:14.906Z,14.73
2022-10-19T01:21:34.986Z,15.26
2022-10-19T01:24:27.119Z,15.89
2022-10-19T01:27:30.001Z,16.23
2022-10-19T01:30:42.017Z,16.45
2022-10-19T01:33:34.223Z,16.63
2022-10-19T01:36:32.255Z,16.00
2022-10-19T01:39:53.201Z,14.89
2022-10-19T01:43:03.719Z,14.63
2022-10-19T01:45:59.911Z,15.43
2022-10-19T01:48:56.438Z,15.88
2022-10-19T01:51:51.094Z,16.21
2022-10-19T01:54:42.570Z,16.34
2022-10-19T01:57:36.712Z,16.54
2022-10-19T02:00:25.293Z,16.70
2022-10-19T02:03:13.059Z,16.87
2022-10-19T02:06:01.649Z,17.02
2022-10-19T02:08:51.457Z,17.12
2022-10-19T02:11:38.243Z,17.18
2022-10-19T02:14:37.705Z,16.57
2022-10-19T02:17:32.927Z,15.39
2022-10-19T02:20:19.923Z,14.93
2022-10-19T02:23:07.090Z,15.54
2022-10-19T02:25:55.315Z,16.04
2022-10-19T02:28:45.326Z,16.33
2022-10-19T02:31:32.107Z,16.52
2022-10-19T02:34:18.423Z,16.63
2022-10-19T02:37:05.536Z,16.70
2022-10-19T02:39:51.715Z,16.74
2022-10-19T02:43:00.133Z,16.79
2022-10-19T02:45:59.789Z,16.84
2022-10-19T02:48:49.313Z,16.96
2022-10-19T02:51:39.464Z,17.02
2022-10-19T02:54:26.696Z,16.60
2022-10-19T02:57:15.589Z,15.43
2022-10-19T03:00:03.426Z,14.80
2022-10-19T03:02:49.449Z,15.40
2022-10-19T03:05:35.669Z,15.87
2022-10-19T03:08:22.149Z,16.08
2022-10-19T03:11:08.554Z,16.18
2022-10-19T03:13:54.886Z,16.28
2022-10-19T03:16:41.264Z,16.33
2022-10-19T03:19:28.023Z,16.40
2022-10-19T03:22:14.819Z,16.51
2022-10-19T03:25:01.067Z,16.58
2022-10-19T03:27:47.938Z,16.64
2022-10-19T03:30:34.456Z,16.65
2022-10-19T03:33:21.307Z,16.72
2022-10-19T03:36:31.280Z,16.82
2022-10-19T03:39:18.074Z,16.90
2022-10-19T03:42:04.668Z,16.83
2022-10-19T03:44:51.152Z,16.15
2022-10-19T03:47:37.580Z,14.97
2022-10-19T03:50:24.190Z,14.66
2022-10-19T03:53:10.659Z,15.19
2022-10-19T03:56:08.191Z,15.59
2022-10-19T03:58:57.119Z,15.81
2022-10-19T04:01:45.717Z,16.02
2022-10-19T04:04:31.613Z,16.18
2022-10-19T04:07:17.833Z,16.31
2022-10-19T04:10:04.850Z,16.33
2022-10-19T04:12:53.787Z,16.33
2022-10-19T04:15:40.561Z,16.28
2022-10-19T04:18:27.034Z,16.08
2022-10-19T04:21:36.867Z,15.98
2022-10-19T04:24:23.223Z,15.80
2022-10-19T04:27:09.717Z,15.82
2022-10-19T04:29:56.029Z,15.79
2022-10-19T04:32:42.034Z,15.79
2022-10-19T04:35:28.262Z,15.82
2022-10-19T04:38:14.779Z,15.89
2022-10-19T04:41:10.470Z,15.95
2022-10-19T04:43:59.460Z,15.96
2022-10-19T04:46:45.918Z,16.03
2022-10-19T04:49:32.053Z,16.07
2022-10-19T04:52:26.155Z,16.04
2022-10-19T04:55:12.510Z,16.08
2022-10-19T04:57:58.780Z,16.12
2022-10-19T05:00:45.010Z,16.10
2022-10-19T05:03:31.504Z,16.03
2022-10-19T05:06:17.964Z,16.03
2022-10-19T05:09:04.510Z,16.05
2022-10-19T05:11:51.035Z,16.10
2022-10-19T05:14:39.149Z,16.14
2022-10-19T05:17:32.233Z,16.18
2022-10-19T05:20:18.737Z,15.98
2022-10-19T05:23:07.268Z,14.98
2022-10-19T05:26:04.777Z,13.82
2022-10-19T05:28:57.428Z,13.46
2022-10-19T05:31:43.734Z,14.29
2022-10-19T05:34:30.156Z,14.89
2022-10-19T05:37:16.927Z,15.28
2022-10-19T05:40:03.709Z,15.56
2022-10-19T05:42:49.905Z,15.69
2022-10-19T05:45:36.363Z,15.84
2022-10-19T05:48:23.427Z,16.01
2022-10-19T05:51:13.054Z,16.08
2022-10-19T05:53:59.409Z,16.20
2022-10-19T05:56:46.906Z,16.30
2022-10-19T05:59:33.587Z,16.39
2022-10-19T06:02:20.311Z,16.12
2022-10-19T06:05:07.267Z,14.98
2022-10-19T06:07:53.782Z,13.99
2022-10-19T06:10:40.352Z,13.64
2022-10-19T06:13:26.839Z,14.47
2022-10-19T06:16:15.568Z,15.18
2022-10-19T06:19:01.799Z,15.58
2022-10-19T06:21:48.168Z,15.86
2022-10-19T06:24:34.748Z,15.69
2022-10-19T06:27:20.966Z,14.58
2022-10-19T06:30:08.218Z,13.69
2022-10-19T06:32:54.550Z,13.40
2022-10-19T06:35:42.450Z,14.27
2022-10-19T06:38:28.695Z,14.99
2022-10-19T06:41:16.237Z,15.38
2022-10-19T06:44:02.281Z,15.69
2022-10-19T06:46:48.686Z,15.53
2022-10-19T06:49:35.398Z,14.46
2022-10-19T06:52:21.923Z,13.54
2022-10-19T06:55:09.018Z,13.23
2022-10-19T06:57:55.425Z,14.06
2022-10-19T07:00:42.042Z,14.75
2022-10-19T07:03:29.819Z,15.26
2022-10-19T07:06:16.121Z,15.70
2022-10-19T07:09:03.252Z,15.73
2022-10-19T07:11:49.644Z,14.90
2022-10-19T07:14:39.033Z,15.37
2022-10-19T07:17:25.663Z,18.01
2022-10-19T07:20:11.911Z,20.36
2022-10-19T07:22:58.327Z,20.52
2022-10-19T07:25:44.943Z,20.06
2022-10-19T07:28:32.437Z,19.14
2022-10-19T07:31:23.511Z,18.18
2022-10-19T07:34:13.050Z,18.72
2022-10-19T07:36:59.655Z,19.99
2022-10-19T07:39:45.907Z,21.43
2022-10-19T07:42:32.367Z,22.49
2022-10-19T07:45:18.835Z,22.14
2022-10-19T07:48:05.635Z,20.96
2022-10-19T07:50:51.925Z,19.68
2022-10-19T07:53:38.834Z,18.55
2022-10-19T07:56:26.962Z,18.04
2022-10-19T07:59:15.642Z,17.59
2022-10-19T08:02:04.170Z,16.98
2022-10-19T08:05:09.118Z,16.27
2022-10-19T08:07:57.411Z,15.55
2022-10-19T08:10:44.066Z,15.13
2022-10-19T08:13:30.025Z,15.05
2022-10-19T08:16:36.783Z,14.93
2022-10-19T08:19:23.766Z,15.95
2022-10-19T08:22:10.683Z,18.40
2022-10-19T08:24:56.869Z,20.20
2022-10-19T08:27:43.237Z,20.35
2022-10-19T08:30:29.837Z,20.97
2022-10-19T08:33:16.135Z,20.67
2022-10-19T08:36:08.280Z,20.96
2022-10-19T08:38:54.894Z,21.51
2022-10-19T08:42:23.515Z,21.43
2022-10-19T08:48:42.346Z,18.80
2022-10-19T08:51:38.684Z,17.68
2022-10-19T08:54:40.082Z,16.86
2022-10-19T08:58:04.983Z,17.15
2022-10-19T09:01:13.531Z,18.77
2022-10-19T09:04:14.616Z,20.60
2022-10-19T09:07:28.819Z,22.26
2022-10-19T09:10:15.268Z,22.97
2022-10-19T09:14:03.782Z,23.97
2022-10-19T09:16:48.238Z,23.39
2022-10-19T09:19:37.091Z,22.67
2022-10-19T09:22:31.832Z,22.25
2022-10-19T09:25:22.603Z,21.27
2022-10-19T09:28:39.831Z,20.01
2022-10-19T09:31:42.840Z,19.08
2022-10-19T09:34:37.750Z,20.27
2022-10-19T09:37:26.572Z,21.40
2022-10-19T09:40:27.740Z,21.05
2022-10-19T09:43:21.197Z,20.12
2022-10-19T09:46:20.548Z,19.23
2022-10-19T09:49:07.450Z,18.34
2022-10-19T09:51:54.661Z,17.49
2022-10-19T09:54:41.270Z,16.57
2022-10-19T09:57:27.939Z,15.73
2022-10-19T10:00:24.948Z,14.96
2022-10-19T10:03:42.933Z,14.39
2022-10-19T10:06:29.309Z,14.37
2022-10-19T10:09:25.771Z,15.43
2022-10-19T10:12:15.487Z,15.95
2022-10-19T10:15:05.991Z,17.49
2022-10-19T10:17:52.924Z,20.05
2022-10-19T10:23:58.826Z,21.28
2022-10-19T10:26:53.924Z,20.03
2022-10-19T10:32:49.771Z,17.61
2022-10-19T10:35:36.694Z,16.87
2022-10-19T10:38:38.683Z,17.30
2022-10-19T10:41:28.416Z,17.75
2022-10-19T10:44:29.196Z,18.00
2022-10-19T10:47:20.051Z,19.98
2022-10-19T10:50:07.304Z,22.37
2022-10-19T10:53:06.580Z,23.30
2022-10-19T10:55:56.114Z,23.40
2022-10-19T10:58:52.733Z,24.56
2022-10-19T11:02:12.340Z,25.65
2022-10-19T11:05:17.015Z,25.64
2022-10-19T11:08:18.419Z,24.83
2022-10-19T11:11:26.998Z,23.52
2022-10-19T11:14:45.744Z,21.77
2022-10-19T11:17:38.722Z,19.90
2022-10-19T11:20:30.311Z,18.43
2022-10-19T11:23:41.708Z,17.74
2022-10-19T11:26:53.114Z,17.23
2022-10-19T11:29:57.937Z,16.49
2022-10-19T11:33:13.042Z,15.96
2022-10-19T11:36:15.144Z,15.45
2022-10-19T11:39:16.398Z,15.08
2022-10-19T11:42:42.092Z,14.59
2022-10-19T11:45:49.254Z,13.94
2022-10-19T11:48:56.699Z,13.46
2022-10-19T12:09:02.692Z,15.06
2022-10-19T12:12:12.190Z,15.03
2022-10-19T12:15:10.620Z,15.56
2022-10-19T12:18:08.195Z,16.42
2022-10-19T12:21:01.772Z,17.09
2022-10-19T12:23:48.365Z,17.45
2022-10-19T12:26:36.644Z,17.66
2022-10-19T12:29:46.634Z,17.76
2022-10-19T12:32:45.613Z,17.89
2022-10-19T12:36:01.920Z,17.99
2022-10-19T12:39:12.899Z,17.87
2022-10-19T12:42:38.823Z,17.28
2022-10-19T12:45:34.388Z,16.41
2022-10-19T12:48:22.350Z,15.81
2022-10-19T12:51:15.261Z,15.44
2022-10-19T12:54:09.056Z,15.07
2022-10-19T12:56:57.665Z,14.70
2022-10-19T12:59:44.328Z,14.50
2022-10-19T13:02:36.280Z,14.37
2022-10-19T13:05:27.144Z,14.25
2022-10-19T13:08:41.612Z,14.15
2022-10-19T13:11:28.336Z,14.04
2022-10-19T13:14:14.467Z,13.95
2022-10-19T13:17:02.495Z,13.84
2022-10-19T13:19:49.113Z,13.71
2022-10-19T13:22:35.631Z,13.43
2022-10-19T13:25:40.253Z,13.03
2022-10-19T13:28:26.249Z,12.55
2022-10-19T13:31:28.998Z,12.15
2022-10-19T13:34:15.978Z,11.81
2022-10-19T13:37:04.033Z,11.60
2022-10-19T13:39:50.347Z,11.46
2022-10-19T13:42:37.368Z,11.41
2022-10-19T13:45:24.365Z,11.39
2022-10-19T13:48:25.949Z,11.33
2022-10-19T13:51:47.346Z,11.22
2022-10-19T13:55:17.420Z,11.08
2022-10-19T13:58:24.890Z,10.84
2022-10-19T14:01:31.722Z,10.58
2022-10-19T14:05:07.239Z,10.34
2022-10-19T14:08:37.105Z,10.16
2022-10-19T14:12:06.402Z,10.10
2022-10-19T14:14:55.768Z,10.11
2022-10-19T14:17:42.601Z,10.15
2022-10-19T14:20:38.455Z,10.20
2022-10-19T14:23:30.998Z,10.24
2022-10-19T14:26:22.753Z,10.27
2022-10-19T14:29:12.933Z,10.30
2022-10-19T14:31:59.822Z,10.27
2022-10-19T14:34:48.346Z,10.22
2022-10-19T14:37:36.302Z,10.15
2022-10-19T14:40:31.944Z,10.05
2022-10-19T14:43:26.675Z,9.94
2022-10-19T14:46:15.977Z,9.83
2022-10-19T14:49:10.639Z,9.75
2022-10-19T14:52:07.865Z,9.69
2022-10-19T14:55:03.628Z,9.60
2022-10-19T14:57:53.485Z,9.51
2022-10-19T15:00:50.417Z,9.38
2022-10-19T15:03:50.134Z,9.25
2022-10-19T15:06:41.923Z,9.10
2022-10-19T15:09:48.121Z,9.02
2022-10-19T15:12:41.971Z,8.93
2022-10-19T15:15:34.563Z,8.86
2022-10-19T15:18:47.840Z,8.80
2022-10-19T15:21:45.256Z,8.76
2022-10-19T15:24:32.895Z,8.72
2022-10-19T15:27:27.948Z,8.69
2022-10-19T15:30:27.152Z,9.13
2022-10-19T15:33:16.732Z,10.74
2022-10-19T15:36:19.012Z,12.01
2022-10-19T15:39:32.907Z,12.87
2022-10-19T15:42:43.540Z,12.87
2022-10-19T15:46:13.482Z,11.81
2022-10-19T15:49:40.013Z,10.94
2022-10-19T15:52:33.120Z,10.39
2022-10-19T15:55:22.015Z,10.01
2022-10-19T15:58:13.176Z,9.65
2022-10-19T16:00:59.450Z,9.30
2022-10-19T16:03:46.360Z,9.00
2022-10-19T16:06:36.062Z,8.75
2022-10-19T16:09:28.125Z,8.87
2022-10-19T16:12:14.745Z,10.16
2022-10-19T16:15:01.566Z,11.20
2022-10-19T16:17:58.889Z,11.51
2022-10-19T16:20:45.595Z,10.67
2022-10-19T16:23:40.960Z,9.93
2022-10-19T16:26:31.415Z,9.40
2022-10-19T16:29:18.020Z,9.03
2022-10-19T16:32:04.819Z,8.75
2022-10-19T16:34:51.451Z,8.51
2022-10-19T16:37:42.703Z,8.35
2022-10-19T16:40:32.111Z,8.66
2022-10-19T16:43:18.830Z,10.04
2022-10-19T16:46:06.270Z,11.15
2022-10-19T16:48:53.456Z,11.81
2022-10-19T16:51:41.903Z,11.98
2022-10-19T16:54:33.479Z,11.06
2022-10-19T16:57:20.441Z,10.27
2022-10-19T17:00:09.039Z,9.74
2022-10-19T17:02:55.674Z,9.35
2022-10-19T17:05:42.528Z,9.07
2022-10-19T17:08:36.894Z,8.83
2022-10-19T17:11:28.897Z,9.00
2022-10-19T17:14:15.885Z,10.37
2022-10-19T17:17:02.812Z,11.49
2022-10-19T17:19:51.880Z,12.25
2022-10-19T17:22:38.689Z,12.73
2022-10-19T17:25:25.577Z,12.76
2022-10-19T17:28:12.767Z,11.75
2022-10-19T17:31:07.701Z,10.88
2022-10-19T17:33:54.801Z,10.26
2022-10-19T17:36:45.291Z,9.84
2022-10-19T17:39:32.102Z,9.49
2022-10-19T17:42:18.758Z,9.19
2022-10-19T17:45:06.354Z,9.20
2022-10-19T17:47:53.013Z,10.37
2022-10-19T17:50:39.218Z,11.34
2022-10-19T17:53:26.179Z,11.97
2022-10-19T17:56:14.964Z,12.35
2022-10-19T17:59:04.293Z,12.33
2022-10-19T18:02:10.228Z,11.28
2022-10-19T18:04:57.969Z,10.30
2022-10-19T18:07:48.664Z,9.70
2022-10-19T18:10:36.373Z,9.29
2022-10-19T18:13:23.026Z,8.96
2022-10-19T18:16:27.041Z,9.02
2022-10-19T18:19:15.071Z,10.34
2022-10-19T18:22:02.166Z,11.33
2022-10-19T18:24:49.025Z,11.99
2022-10-19T18:27:35.911Z,12.34
2022-10-19T18:30:22.468Z,11.64
2022-10-19T18:33:09.204Z,10.70
2022-10-19T18:35:57.910Z,10.03
2022-10-19T18:38:44.428Z,9.54
2022-10-19T18:41:31.677Z,9.18
2022-10-19T18:44:23.465Z,9.22
2022-10-19T18:47:12.958Z,10.44
2022-10-19T18:49:59.372Z,11.41
2022-10-19T18:52:45.814Z,12.08
2022-10-19T18:55:32.908Z,12.55
2022-10-19T18:58:19.156Z,12.55
2022-10-19T19:01:12.398Z,11.56
2022-10-19T19:04:06.986Z,10.64
2022-10-19T19:06:53.379Z,9.96
2022-10-19T19:09:40.247Z,9.48
2022-10-19T19:12:26.954Z,9.07
2022-10-19T19:15:13.519Z,9.01
2022-10-19T19:17:59.844Z,10.11
2022-10-19T19:20:46.400Z,11.09
2022-10-19T19:23:33.049Z,11.67
2022-10-19T19:26:21.923Z,11.90
2022-10-19T19:29:08.639Z,10.99
2022-10-19T19:31:55.065Z,10.07
2022-10-19T19:34:45.835Z,9.44
2022-10-19T19:37:35.178Z,8.94
2022-10-19T19:40:22.630Z,8.51
2022-10-19T19:43:10.302Z,8.16
2022-10-19T19:46:04.761Z,8.27
2022-10-19T19:49:00.612Z,9.56
2022-10-19T19:51:49.121Z,10.50
2022-10-19T19:54:35.528Z,11.12
2022-10-19T19:57:22.075Z,11.26
2022-10-19T20:00:09.547Z,10.27
2022-10-19T20:02:59.655Z,9.39
2022-10-19T20:05:46.746Z,8.77
2022-10-19T20:08:35.541Z,8.31
2022-10-19T20:11:24.213Z,7.93
2022-10-19T20:14:11.777Z,7.99
2022-10-19T20:16:58.612Z,9.19
2022-10-19T20:19:45.052Z,10.16
2022-10-19T20:22:31.693Z,10.78
2022-10-19T20:25:29.610Z,11.21
2022-10-19T20:28:19.887Z,11.03
2022-10-19T20:31:08.609Z,9.88
2022-10-19T20:33:56.553Z,8.96
2022-10-19T20:36:43.053Z,8.31
2022-10-19T20:39:32.156Z,7.81
2022-10-19T20:42:18.809Z,7.41
2022-10-19T20:45:05.974Z,7.46
2022-10-19T20:47:52.396Z,8.70
2022-10-19T20:50:42.240Z,9.72
2022-10-19T20:53:28.853Z,10.37
2022-10-19T20:56:22.619Z,10.79
2022-10-19T20:59:16.601Z,10.65
2022-10-19T21:02:02.849Z,9.52
2022-10-19T21:04:51.764Z,8.61
2022-10-19T21:07:38.278Z,7.95
2022-10-19T21:10:24.857Z,7.47
2022-10-19T21:13:11.106Z,7.08
2022-10-19T21:15:57.575Z,7.11
2022-10-19T21:18:46.715Z,8.33
2022-10-19T21:21:40.136Z,9.42
2022-10-19T21:24:33.753Z,10.16
2022-10-19T21:27:20.279Z,10.59
2022-10-19T21:30:07.892Z,9.90
2022-10-19T21:32:54.018Z,8.97
2022-10-19T21:35:40.264Z,8.32
2022-10-19T21:38:26.898Z,7.88
2022-10-19T21:41:20.771Z,7.55
2022-10-19T21:44:10.201Z,7.66
2022-10-19T21:46:56.553Z,8.90
2022-10-19T21:49:42.843Z,9.99
2022-10-19T21:52:29.510Z,10.75
2022-10-19T21:55:16.157Z,11.33
2022-10-19T21:58:04.504Z,11.44
2022-10-19T22:00:51.021Z,10.51
2022-10-19T22:03:37.673Z,9.71
2022-10-19T22:06:29.505Z,9.15
2022-10-19T22:09:22.687Z,8.73
2022-10-19T22:12:08.994Z,8.39
2022-10-19T22:14:55.398Z,8.49
2022-10-19T22:17:42.291Z,9.69
2022-10-19T22:20:28.924Z,10.70
2022-10-19T22:23:14.827Z,11.37
2022-10-19T22:26:01.102Z,11.84
2022-10-19T22:28:47.991Z,11.90
2022-10-19T22:31:36.009Z,10.95
2022-10-19T22:34:22.215Z,10.14
2022-10-19T22:37:08.510Z,9.60
2022-10-19T22:39:54.863Z,9.20
2022-10-19T22:43:52.825Z,8.87
2022-10-19T22:46:58.230Z,9.46
2022-10-19T22:49:47.117Z,10.63
2022-10-19T22:52:33.790Z,11.43
2022-10-19T22:55:21.190Z,11.93
2022-10-19T22:58:08.416Z,11.42
2022-10-19T23:01:08.504Z,10.51
2022-10-19T23:03:55.291Z,9.83
2022-10-19T23:06:41.617Z,9.37
2022-10-19T23:09:27.543Z,9.02
2022-10-19T23:12:13.975Z,8.72
2022-10-19T23:15:00.257Z,8.80
2022-10-19T23:17:46.242Z,9.96
2022-10-19T23:20:32.330Z,10.96
2022-10-19T23:23:18.594Z,11.62
2022-10-19T23:26:04.698Z,11.78
2022-10-19T23:28:51.760Z,10.92
2022-10-19T23:31:37.978Z,10.16
2022-10-19T23:34:24.423Z,9.63
2022-10-19T23:37:10.587Z,9.24
2022-10-19T23:39:56.721Z,8.95
2022-10-19T23:42:43.434Z,8.74
2022-10-19T23:45:30.072Z,9.52
2022-10-19T23:48:16.549Z,10.68
2022-10-19T23:51:12.811Z,11.53
2022-10-19T23:53:59.345Z,11.77
2022-10-19T23:56:45.850Z,10.90
2022-10-19T23:59:32.230Z,10.14
